createdAt,value
2018-06-27T11:22:05.071Z,1.23
2018-06-27T11:27:08.175Z,1.20
2018-06-27T11:32:11.344Z,1.20
2018-06-27T11:37:14.513Z,1.50
2018-06-27T11:42:17.706Z,1.50
2018-06-27T11:47:20.835Z,1.60
2018-06-27T11:52:23.971Z,1.67
2018-06-27T11:57:27.603Z,1.57
2018-06-27T12:02:31.366Z,1.20
2018-06-27T12:07:34.601Z,1.50
2018-06-27T12:12:37.749Z,1.50
2018-06-27T12:17:41.437Z,1.37
2018-06-27T12:22:44.646Z,1.60
2018-06-27T12:27:47.835Z,1.30
2018-06-27T12:32:51.291Z,1.30
2018-06-27T12:37:54.516Z,1.40
2018-06-27T12:42:57.954Z,1.70
2018-06-27T12:48:01.141Z,1.57
2018-06-27T12:53:04.545Z,1.40
2018-06-27T12:58:08.354Z,1.47
2018-06-27T13:03:12.157Z,1.50
2018-06-27T13:08:15.414Z,1.47
2018-06-27T13:13:18.644Z,1.40
2018-06-27T13:18:21.934Z,1.60
2018-06-27T13:23:25.064Z,1.40
2018-06-27T13:28:28.236Z,1.40
2018-06-27T13:33:31.367Z,1.57
2018-06-27T13:38:34.586Z,1.50
2018-06-27T13:43:37.826Z,1.80
2018-06-27T13:48:41.144Z,1.60
2018-06-27T13:53:44.425Z,1.77
2018-06-27T13:58:47.599Z,1.77
2018-06-27T14:03:50.814Z,1.50
2018-06-27T14:08:53.898Z,1.90
2018-06-27T14:13:57.070Z,1.83
2018-06-27T14:19:00.239Z,1.57
2018-06-27T14:24:03.485Z,1.57
2018-06-27T14:29:06.738Z,1.57
2018-06-27T14:34:11.919Z,1.60
2018-06-27T14:39:15.206Z,1.93
2018-06-27T14:44:18.437Z,1.90
2018-06-27T14:49:21.735Z,1.30
2018-06-27T14:54:25.594Z,1.40
2018-06-27T14:59:28.804Z,1.60
2018-06-27T15:04:31.955Z,1.40
2018-06-27T15:09:35.084Z,1.40
2018-06-27T15:14:38.184Z,1.53
2018-06-27T15:19:41.609Z,1.50
2018-06-27T15:24:44.947Z,1.60
2018-06-27T15:29:48.428Z,1.43
2018-06-27T15:34:51.528Z,1.50
2018-06-27T15:39:54.852Z,1.50
2018-06-27T15:44:58.028Z,1.70
2018-06-27T15:50:01.148Z,1.30
2018-06-27T15:55:04.560Z,1.57
2018-06-27T16:00:07.791Z,1.60
2018-06-27T16:05:11.027Z,1.50
2018-06-27T16:10:14.605Z,1.60
2018-06-27T16:15:18.632Z,1.50
2018-06-27T16:20:21.977Z,1.70
2018-06-27T16:25:25.096Z,1.90
2018-06-27T16:30:28.271Z,1.70
2018-06-27T16:35:32.112Z,1.73
2018-06-27T16:40:35.850Z,1.50
2018-06-27T16:45:38.989Z,1.87
2018-06-27T16:50:42.431Z,1.70
2018-06-27T16:55:45.903Z,1.50
2018-06-27T17:00:50.136Z,1.50
2018-06-27T17:05:54.455Z,1.43
2018-06-27T17:10:57.656Z,1.60
2018-06-27T17:16:00.816Z,1.60
2018-06-27T17:21:03.985Z,2.27
2018-06-27T17:26:07.197Z,1.60
2018-06-27T17:31:10.392Z,1.70
2018-06-27T17:36:13.907Z,1.80
2018-06-27T17:41:17.349Z,1.63
2018-06-27T17:46:20.633Z,1.70
2018-06-27T17:51:23.875Z,1.60
2018-06-27T17:56:27.445Z,1.77
2018-06-27T18:01:30.702Z,1.50
2018-06-27T18:06:33.842Z,1.70
2018-06-27T18:11:36.963Z,1.57
2018-06-27T18:16:40.147Z,1.50
2018-06-27T18:21:43.311Z,1.57
2018-06-27T18:26:46.459Z,1.83
2018-06-27T18:31:49.742Z,1.87
2018-06-27T18:36:53.073Z,1.87
2018-06-27T18:41:56.435Z,1.70
2018-06-27T18:47:02.479Z,2.00
2018-06-27T18:52:06.040Z,1.90
2018-06-27T18:57:09.229Z,1.73
2018-06-27T19:02:12.462Z,2.13
2018-06-27T19:07:15.671Z,1.80
2018-06-27T19:12:18.956Z,1.87
2018-06-27T19:17:22.248Z,2.30
2018-06-27T19:22:25.435Z,2.50
2018-06-27T19:27:28.699Z,2.17
2018-06-27T19:32:31.950Z,2.80
2018-06-27T19:37:35.073Z,1.87
2018-06-27T19:42:38.296Z,1.90
2018-06-27T19:47:41.547Z,1.90
2018-06-27T19:52:45.249Z,2.00
2018-06-27T19:57:48.961Z,2.27
2018-06-27T20:02:55.249Z,2.13
2018-06-27T20:07:59.779Z,2.63
2018-06-27T20:13:06.314Z,2.60
2018-06-27T20:18:09.871Z,3.10
2018-06-27T20:23:13.283Z,2.87
2018-06-27T20:28:16.427Z,2.40
2018-06-27T20:33:19.639Z,2.60
2018-06-27T20:38:22.789Z,2.20
2018-06-27T20:43:25.949Z,2.13
2018-06-27T20:48:29.405Z,2.47
2018-06-27T20:53:32.756Z,2.17
2018-06-27T20:58:36.020Z,2.47
2018-06-27T21:03:39.231Z,2.30
2018-06-27T21:08:42.353Z,2.40
2018-06-27T21:13:45.566Z,2.40
2018-06-27T21:18:49.637Z,2.50
2018-06-27T21:23:52.765Z,2.47
2018-06-27T21:28:55.855Z,2.40
2018-06-27T21:34:01.314Z,2.90
2018-06-27T21:39:07.404Z,2.57
2018-06-27T21:44:10.550Z,2.80
2018-06-27T21:49:13.666Z,2.80
2018-06-27T21:54:16.888Z,2.57
2018-06-27T21:59:20.030Z,2.93
2018-06-27T22:04:23.205Z,2.70
2018-06-27T22:09:26.763Z,2.80
2018-06-27T22:14:29.958Z,2.90
2018-06-27T22:19:33.178Z,2.70
2018-06-27T22:24:36.501Z,2.57
2018-06-27T22:29:39.621Z,3.03
2018-06-27T22:34:42.849Z,2.73
2018-06-27T22:39:46.020Z,3.27
2018-06-27T22:44:49.170Z,2.67
2018-06-27T22:49:52.309Z,2.90
2018-06-27T22:54:55.408Z,2.63
2018-06-27T22:59:58.623Z,2.53
2018-06-27T23:05:01.793Z,2.70
2018-06-27T23:10:05.155Z,2.80
2018-06-27T23:15:08.383Z,3.00
2018-06-27T23:20:11.534Z,3.00
2018-06-27T23:25:14.682Z,2.87
2018-06-27T23:30:17.825Z,3.20
2018-06-27T23:35:21.310Z,2.63
2018-06-27T23:40:24.991Z,2.73
2018-06-27T23:45:28.133Z,3.23
2018-06-27T23:50:31.255Z,2.43
2018-06-27T23:55:34.387Z,2.60
